Riverside, CA (92509)

1:50 PM PST on November 28, 2014 (GMT -0800)
Indian Hills | Change Station
CLOSE
Current Station
Personal Weather Station
Location: Riverside, CA
Elevation: 1070 ft
Nearby Weather Stations

Elev 1070 ft 33.99 °N, 117.45 °W | Updated 5 minutes ago

Clear
Clear
81.0 °F
Feels Like 79 °F
N
6.0
Wind Variable Wind from NNW
Gusts 9.0 mph

Today
High -- | Low -- °F
--% Chance of Precip.
Yesterday
High -- | Low -- °F
Precip. -- in
6:34 AM 4:40 PM
Waxing Crescent, 44% visible
Pressure 29.90 in
Visibility 10.0 miles
Clouds Clear
Heat Index 79 °F
Dew Point 29 °F
Humidity 15%
Rainfall 0.00 in
Snow Depth Not available.
UV 3 out of 12
Pollen 2.10 out of 12
Air Quality Not available.
Flu Activity Not available.
METAR KRAL 282053Z 26005KT 10SM CLR 27/M07 A2994 RMK AO2 SLP123 T02721067 58028

More Conditions Fewer Conditions

Pressure 29.90 in
Visibility 10.0 miles
Clouds Clear
Heat Index 79 °F
Dew Point 29 °F
Humidity 15%
Rainfall 0.00 in
Snow Depth Not available.
UV 3 out of 12
Pollen 2.10 out of 12
Air Quality Not available.
Flu Activity Not available.
METAR KRAL 282053Z 26005KT 10SM CLR 27/M07 A2994 RMK AO2 SLP123 T02721067 58028

More Conditions Fewer Conditions

10-Day Weather Forecast

Almanac

Astronomy

Nov. 28, 2014 Rise Set
Actual Time
Civil Twilight
Nautical Twilight
Astronomical Twilight
Moon
Length of Visible Light
Length of Day
Tomorrow will be .
, % of the Moon is Illuminated

Today's Extremes

State Highs State Lows

Community

WunderPhotos

Upload Photos

1,774,310 photos uploaded!

WunderBlogs® & News

Nearby

Air Quality

  Air Quality AQ Index Pollutant
Not available.

Snow Depth

Station Depth Elevation

Earthquake Activity

City Distance Mag. Time & Date
Minimum magnitude displayed is 2.5.

Coastal Water Temperatures

Place Temperature

Nearby Weather Stations